Time;durP1;ratioP1;P1;durP2;ratioP2;P2;SDS_P1;SDS_P2;PMS_P1;PMS_P2;Temp;Humidity;BMP_temperature;BMP_pressure;BME280_temperature;BME280_humidity;BME280_pressure;Samples;Min_cycle;Max_cycle;Signal;HPM_P1;HPM_P2
2023/01/29 02:26:06;;;;;;;22.80;14.70;;;;;;;-2.93;74.76;99680.11;105286;1283;612954;-39
2023/01/29 02:28:55;;;;;;;23.80;14.50;;;;;;;-2.52;73.51;99676.95;106493;1266;184462;-39
2023/01/29 02:31:29;;;;;;;23.60;14.00;;;;;;;-2.63;73.74;99675.04;106797;1266;61481;-39
2023/01/29 02:34:25;;;;;;;22.00;13.40;;;;;;;-2.62;73.73;99679.19;106741;1268;73342;-41
2023/01/29 02:37:07;;;;;;;24.90;14.60;;;;;;;-2.55;73.49;99679.13;106716;1268;69970;-39
2023/01/29 02:39:57;;;;;;;26.80;13.70;;;;;;;-2.58;73.45;99681.41;106657;1266;73763;-39
2023/01/29 02:42:26;;;;;;;;;;;;;;;-2.60;73.61;99684.54;106631;1268;60835;-39
2023/01/29 02:45:11;;;;;;;25.80;14.10;;;;;;;-2.68;73.73;99685.49;106647;1270;60007;-40
2023/01/29 02:47:47;;;;;;;23.20;13.30;;;;;;;-2.72;73.86;99685.08;106676;1266;73590;-39
2023/01/29 02:50:20;;;;;;;26.00;14.50;;;;;;;-2.75;73.66;99686.28;106705;1266;69993;-40
2023/01/29 02:52:57;;;;;;;24.40;14.30;;;;;;;-2.79;73.60;99685.91;106728;1266;74063;-39
2023/01/29 02:55:39;;;;;;;23.40;14.40;;;;;;;-2.79;73.52;99679.48;106724;1268;62445;-40
2023/01/29 02:58:28;;;;;;;21.30;13.50;;;;;;;-2.72;73.62;99683.85;106721;1270;61333;-40
2023/01/29 03:01:01;;;;;;;25.70;13.60;;;;;;;-2.71;73.77;99686.27;106732;1265;74215;-40
2023/01/29 03:03:45;;;;;;;23.60;14.00;;;;;;;-2.71;73.86;99681.67;106636;1267;69598;-40
2023/01/29 03:06:35;;;;;;;26.30;14.70;;;;;;;-2.72;73.89;99681.09;106589;1269;71731;-40
2023/01/29 03:09:18;;;;;;;25.60;14.60;;;;;;;-2.71;74.16;99680.77;106669;1270;59763;-40
2023/01/29 03:11:55;;;;;;;24.40;13.80;;;;;;;-2.74;74.30;99684.10;106736;1266;60244;-40
2023/01/29 03:18:01;;;;;;;27.30;13.70;;;;;;;-2.71;74.50;99682.04;106475;1271;69646;-41
2023/01/29 03:20:33;;;;;;;26.80;14.20;;;;;;;-2.66;74.86;99680.09;106750;1267;70819;-40
2023/01/29 03:23:05;;;;;;;26.60;14.80;;;;;;;-2.59;75.03;99684.75;106757;1266;60188;-40
2023/01/29 03:34:15;;;;;;;27.50;14.40;;;;;;;-2.39;74.96;99685.08;106627;1267;71982;-40
2023/01/29 03:36:54;;;;;;;24.90;13.70;;;;;;;-2.32;74.79;99683.95;106584;1270;62217;-40
2023/01/29 03:39:24;;;;;;;28.50;14.00;;;;;;;-2.20;74.52;99683.34;106599;1270;61019;-40
2023/01/29 03:42:17;;;;;;;24.90;14.10;;;;;;;-2.16;74.37;99680.33;106675;1270;73108;-40
2023/01/29 03:45:07;;;;;;;25.00;14.40;;;;;;;-2.12;74.41;99676.70;106630;1269;68885;-40
2023/01/29 03:47:44;;;;;;;27.20;14.20;;;;;;;-2.09;74.22;99673.23;106680;1270;73893;-40
2023/01/29 03:50:30;;;;;;;26.20;15.00;;;;;;;-2.08;74.06;99672.61;106723;1268;60823;-40
2023/01/29 03:53:27;;;;;;;27.80;14.60;;;;;;;-2.08;73.82;99671.27;106648;1267;61569;-40
2023/01/29 03:56:07;;;;;;;23.80;14.40;;;;;;;-2.12;73.52;99671.34;106709;1268;73455;-40
2023/01/29 03:58:46;;;;;;;25.00;14.40;;;;;;;-2.15;73.43;99668.70;106653;1266;70004;-40
2023/01/29 04:01:19;;;;;;;23.20;14.10;;;;;;;-2.12;73.07;99671.92;106693;1270;73588;-40
2023/01/29 04:03:53;;;;;;;24.70;14.50;;;;;;;-2.05;72.78;99674.09;106691;1272;59634;-40
2023/01/29 04:06:33;;;;;;;27.00;15.40;;;;;;;-2.02;72.51;99674.51;106665;1270;61495;-40
2023/01/29 04:09:11;;;;;;;25.60;15.10;;;;;;;-2.01;72.30;99673.50;106715;1267;74039;-40
2023/01/29 04:11:43;;;;;;;27.50;16.00;;;;;;;-2.02;72.02;99668.55;106729;1269;69982;-40
2023/01/29 04:14:12;;;;;;;27.70;15.60;;;;;;;-2.04;71.73;99669.10;106669;1267;73895;-40
2023/01/29 04:16:43;;;;;;;24.10;14.50;;;;;;;-2.05;71.63;99673.03;106757;1267;59617;-40
2023/01/29 04:19:14;;;;;;;24.30;14.20;;;;;;;-2.09;71.59;99674.48;106706;1267;59508;-40
2023/01/29 04:21:43;;;;;;;26.10;14.90;;;;;;;-2.13;71.48;99672.62;106745;1269;72103;-40
2023/01/29 04:24:12;;;;;;;25.40;15.40;;;;;;;-2.17;71.38;99670.44;105938;1270;1003733;-40
2023/01/29 04:27:03;;;;;;;23.70;14.30;;;;;;;-2.21;71.19;99674.70;106649;1270;73857;-40
2023/01/29 04:29:38;;;;;;;26.30;14.20;;;;;;;-2.19;71.00;99672.45;106623;1268;62205;-40
2023/01/29 04:32:36;;;;;;;27.10;14.80;;;;;;;-2.12;70.76;99673.46;106658;1267;62878;-40
2023/01/29 04:35:10;;;;;;;25.10;14.90;;;;;;;-2.11;70.94;99678.88;106737;1268;72999;-40
2023/01/29 04:38:15;;;;;;;28.80;16.00;;;;;;;-2.08;71.12;99685.30;106680;1267;70054;-41
2023/01/29 04:41:02;;;;;;;33.80;17.20;;;;;;;-2.05;71.08;99678.29;106574;1267;73897;-40
2023/01/29 04:43:56;;;;;;;33.70;18.40;;;;;;;-2.06;71.27;99677.05;106610;1269;60811;-40
2023/01/29 04:46:43;;;;;;;32.20;16.80;;;;;;;-2.07;71.49;99682.22;107134;1258;61477;-40
2023/01/29 04:49:40;;;;;;;33.70;17.70;;;;;;;-2.10;71.66;99685.09;107233;1257;74067;-40
2023/01/29 04:52:33;;;;;;;33.20;18.00;;;;;;;-2.09;71.87;99682.60;107222;1261;69677;-40
2023/01/29 04:55:26;;;;;;;35.30;18.00;;;;;;;-2.03;71.87;99683.43;107186;1257;73917;-41
2023/01/29 04:58:15;;;;;;;31.90;17.50;;;;;;;-1.93;72.02;99685.75;107036;1258;60891;-40
2023/01/29 05:00:45;;;;;;;31.30;17.70;;;;;;;-1.98;72.22;99669.52;107187;1260;60538;-40
2023/01/29 05:03:14;;;;;;;36.30;17.80;;;;;;;-1.87;72.42;99680.85;107247;1257;74081;-40
2023/01/29 05:05:45;;;;;;;23.90;13.10;;;;;;;-1.84;72.44;99681.27;107197;1257;69572;-41
2023/01/29 05:08:16;;;;;;;34.90;18.90;;;;;;;-1.85;72.57;99680.31;107098;1257;71064;-40
2023/01/29 05:10:45;;;;;;;37.30;18.30;;;;;;;-1.86;72.60;99679.36;107092;1257;60746;-40
2023/01/29 05:13:14;;;;;;;35.10;18.40;;;;;;;-1.89;72.82;99680.58;107148;1258;59571;-40
2023/01/29 05:15:46;;;;;;;32.50;17.90;;;;;;;-1.83;72.88;99683.60;106931;1257;74408;-41
2023/01/29 05:18:15;;;;;;;35.70;18.20;;;;;;;-1.73;72.88;99685.80;107197;1257;69949;-40
2023/01/29 05:20:43;;;;;;;35.10;18.40;;;;;;;-1.69;72.92;99689.57;107037;1258;73658;-40
2023/01/29 05:23:21;;;;;;;34.00;19.00;;;;;;;-1.66;73.01;99693.23;107262;1260;60559;-41
2023/01/29 05:25:50;;;;;;;40.00;19.30;;;;;;;-1.61;73.08;99695.02;107188;1258;61543;-41
2023/01/29 05:28:19;;;;;;;34.70;19.30;;;;;;;-1.57;73.04;99696.00;107115;1257;74312;-41
2023/01/29 05:30:50;;;;;;;39.90;20.20;;;;;;;-1.53;73.05;99699.63;107248;1257;69999;-41
2023/01/29 05:33:24;;;;;;;37.60;20.30;;;;;;;-1.53;72.87;99699.24;107192;1260;73933;-41
2023/01/29 05:35:53;;;;;;;38.70;19.80;;;;;;;-1.53;72.91;99699.98;107188;1260;60766;-41
2023/01/29 05:38:22;;;;;;;37.90;19.00;;;;;;;-1.53;72.72;99702.33;107260;1257;60353;-41
2023/01/29 05:40:50;;;;;;;35.70;19.00;;;;;;;-1.49;72.55;99703.91;107241;1257;74232;-41
2023/01/29 05:43:20;;;;;;;35.20;18.20;;;;;;;-1.52;72.80;99704.29;107067;1257;69724;-41
2023/01/29 05:46:00;;;;;;;35.30;18.70;;;;;;;-1.53;73.20;99704.34;107128;1260;71709;-41
2023/01/29 05:48:28;;;;;;;;;;;;;;;-1.53;73.34;99706.80;107163;1256;60745;-41
2023/01/29 05:51:03;;;;;;;42.10;19.00;;;;;;;-1.61;73.83;99705.91;107168;1257;61154;-41
2023/01/29 05:53:32;;;;;;;38.40;19.00;;;;;;;-1.63;73.88;99704.38;107136;1258;72977;-41
2023/01/29 08:33:21;;;;;;;22.20;14.20;;;;;;;-0.14;81.54;99710.94;105027;1283;613727;-39
2023/01/29 08:36:04;;;;;;;20.10;13.90;;;;;;;0.34;79.69;99711.05;106370;1266;307863;-39
2023/01/29 08:38:32;;;;;;;24.00;13.50;;;;;;;0.27;79.82;99712.35;106653;1269;61600;-39
2023/01/29 08:41:01;;;;;;;22.40;13.60;;;;;;;0.34;79.59;99711.10;106608;1266;73228;-39
2023/01/29 08:43:30;;;;;;;22.00;14.20;;;;;;;0.47;79.38;99710.16;106598;1268;69574;-39
2023/01/29 08:45:59;;;;;;;22.60;13.20;;;;;;;0.54;78.71;99705.06;106616;1269;73001;-38
2023/01/29 08:48:29;;;;;;;;;;;;;;;0.57;78.37;99697.92;106742;1266;60344;-38
2023/01/29 08:51:01;;;;;;;21.20;12.40;;;;;;;0.56;77.93;99695.33;106739;1269;60144;-38
2023/01/29 08:53:31;;;;;;;19.90;12.70;;;;;;;0.50;77.81;99691.88;106754;1267;73362;-39
2023/01/29 08:55:59;;;;;;;21.20;12.00;;;;;;;0.53;77.76;99688.65;106744;1267;68937;-38
2023/01/29 08:58:28;;;;;;;18.00;11.80;;;;;;;0.63;77.36;99687.99;106816;1266;73883;-39
2023/01/29 09:01:04;;;;;;;18.40;11.60;;;;;;;0.74;77.08;99687.73;106745;1267;60869;-39
2023/01/29 09:03:33;;;;;;;16.90;11.10;;;;;;;0.80;76.67;99687.57;106793;1266;59654;-39
2023/01/29 09:06:02;;;;;;;17.50;11.80;;;;;;;0.83;76.57;99686.66;106752;1267;74267;-38
2023/01/29 09:08:30;;;;;;;13.00;8.40;;;;;;;0.86;76.35;99684.00;106781;1269;69807;-39
2023/01/29 09:11:00;;;;;;;18.50;10.90;;;;;;;0.88;75.81;99682.58;106749;1266;73868;-38
2023/01/29 09:13:30;;;;;;;18.80;10.70;;;;;;;0.84;75.29;99683.34;106726;1269;62569;-39
2023/01/29 09:15:59;;;;;;;18.70;11.40;;;;;;;0.85;75.11;99683.80;106747;1267;61534;-39
2023/01/29 09:18:29;;;;;;;15.90;10.30;;;;;;;0.93;75.48;99682.10;106608;1267;73006;-39
2023/01/29 09:20:57;;;;;;;18.80;11.30;;;;;;;0.96;74.81;99681.85;106604;1267;69921;-38
2023/01/29 09:23:26;;;;;;;13.10;8.20;;;;;;;0.97;75.14;99680.66;106648;1267;73571;-38
2023/01/29 09:25:55;;;;;;;17.30;11.40;;;;;;;1.02;75.21;99680.91;106657;1266;60766;-39
2023/01/29 09:28:24;;;;;;;12.50;7.70;;;;;;;1.07;75.03;99678.96;106625;1267;61573;-39
2023/01/29 09:30:52;;;;;;;16.10;10.10;;;;;;;1.11;74.40;99679.88;106719;1267;74089;-40
2023/01/29 09:33:21;;;;;;;16.00;10.30;;;;;;;1.18;74.29;99675.65;106754;1266;68635;-39
2023/01/29 09:35:49;;;;;;;15.10;10.10;;;;;;;1.18;73.83;99673.41;106797;1269;73690;-38
2023/01/29 09:38:18;;;;;;;18.50;11.10;;;;;;;1.14;73.58;99674.05;106750;1266;60731;-40
2023/01/29 09:41:22;;;;;;;15.20;10.20;;;;;;;1.11;73.61;99674.91;104548;1269;1003589;-38
2023/01/29 09:43:54;;;;;;;18.00;11.70;;;;;;;1.10;73.95;99670.98;106691;1267;74086;-38
2023/01/29 09:46:26;;;;;;;17.80;11.40;;;;;;;1.08;74.16;99674.14;106765;1266;69956;-39
2023/01/29 09:49:28;;;;;;;15.10;10.10;;;;;;;1.11;73.92;99674.59;106776;1267;73369;-39
2023/01/29 09:52:00;;;;;;;17.90;10.50;;;;;;;1.17;73.48;99667.28;106727;1269;59733;-39
2023/01/29 09:54:44;;;;;;;17.40;11.30;;;;;;;1.14;73.62;99661.83;106779;1269;60061;-39
2023/01/29 09:57:18;;;;;;;19.10;12.00;;;;;;;1.16;73.67;99662.06;106752;1266;74225;-39
2023/01/29 09:59:46;;;;;;;18.30;11.20;;;;;;;1.14;73.79;99657.30;106772;1266;69635;-39
2023/01/29 10:02:37;;;;;;;16.10;10.60;;;;;;;1.06;73.50;99661.30;106619;1269;73894;-39
2023/01/29 10:05:17;;;;;;;17.60;10.90;;;;;;;0.99;73.73;99658.69;106634;1269;62445;-38
2023/01/29 10:08:15;;;;;;;16.50;10.40;;;;;;;1.00;73.60;99655.26;105185;1267;1003423;-40
2023/01/29 10:10:50;;;;;;;16.40;10.50;;;;;;;1.07;73.57;99646.17;106648;1266;74240;-39
2023/01/29 10:13:29;;;;;;;17.70;11.60;;;;;;;1.10;73.71;99641.45;106792;1266;69541;-39
2023/01/29 10:16:04;;;;;;;17.20;11.00;;;;;;;1.13;73.77;99640.48;106813;1267;73337;-39
2023/01/29 10:18:39;;;;;;;18.20;11.50;;;;;;;1.15;73.55;99639.98;106721;1269;59489;-39
2023/01/29 10:21:23;;;;;;;17.00;10.40;;;;;;;1.12;73.17;99635.00;106694;1267;61804;-39
2023/01/29 10:23:54;;;;;;;18.60;11.40;;;;;;;1.09;73.28;99628.73;106779;1266;74160;-40
2023/01/29 10:26:23;;;;;;;16.80;11.10;;;;;;;1.05;73.16;99627.48;106731;1267;68315;-38
2023/01/29 10:28:54;;;;;;;14.50;9.70;;;;;;;1.05;72.95;99625.34;106728;1270;74153;-39
2023/01/29 10:31:26;;;;;;;14.10;9.20;;;;;;;1.06;72.67;99621.59;106782;1269;59669;-40
2023/01/29 10:34:02;;;;;;;19.90;11.60;;;;;;;1.03;72.70;99619.38;106788;1269;61599;-38
2023/01/29 10:36:46;;;;;;;17.10;10.60;;;;;;;1.02;73.00;99613.95;104580;1269;1003679;-40
2023/01/29 10:39:18;;;;;;;20.10;11.60;;;;;;;1.05;73.27;99609.80;106756;1269;69695;-39
2023/01/29 10:42:05;;;;;;;15.90;10.60;;;;;;;1.06;72.85;99603.11;106741;1267;71682;-39
2023/01/29 10:45:09;;;;;;;18.00;11.20;;;;;;;1.06;72.85;99600.11;106834;1266;61636;-39
2023/01/29 10:47:47;;;;;;;17.50;10.60;;;;;;;1.14;72.56;99599.04;106943;1264;61346;-39
2023/01/29 10:50:21;;;;;;;17.00;10.70;;;;;;;1.21;72.57;99599.55;106890;1262;71179;-39
2023/01/29 10:53:15;;;;;;;17.50;11.30;;;;;;;1.27;72.29;99597.70;106877;1266;69954;-38
2023/01/29 10:56:02;;;;;;;20.70;12.30;;;;;;;1.36;72.27;99589.80;106842;1264;73736;-39
2023/01/29 10:58:48;;;;;;;17.90;11.40;;;;;;;1.45;72.16;99596.59;106871;1266;60823;-38
2023/01/29 11:01:17;;;;;;;17.30;11.40;;;;;;;1.48;71.31;99592.39;106795;1266;61470;-39
2023/01/29 11:03:45;;;;;;;17.70;11.50;;;;;;;1.45;70.65;99590.30;106751;1266;74243;-39
2023/01/29 11:06:20;;;;;;;19.30;11.50;;;;;;;1.39;70.40;99587.41;106704;1269;70039;-39
2023/01/29 11:09:07;;;;;;;16.20;10.60;;;;;;;1.43;70.62;99585.79;106804;1267;73674;-38
2023/01/29 11:11:45;;;;;;;14.80;9.90;;;;;;;1.50;70.12;99587.02;106833;1264;59722;-39
2023/01/29 11:14:28;;;;;;;16.10;10.40;;;;;;;1.49;69.87;99583.92;106811;1266;61490;-39
2023/01/29 11:16:57;;;;;;;16.30;10.50;;;;;;;1.50;69.68;99577.74;106812;1264;73202;-39
2023/01/29 11:19:40;;;;;;;16.70;11.30;;;;;;;1.48;69.44;99575.02;106751;1269;69995;-39
2023/01/29 11:22:18;;;;;;;18.10;11.60;;;;;;;1.50;69.94;99581.14;106849;1264;71761;-40
2023/01/29 11:25:08;;;;;;;18.10;11.80;;;;;;;1.47;69.62;99580.80;106786;1266;60350;-38
2023/01/29 11:27:42;;;;;;;;;;;;;;;1.39;69.06;99571.73;106888;1267;60648;-38
2023/01/29 11:30:37;;;;;;;16.10;10.50;;;;;;;1.20;69.44;99572.39;106862;1264;74263;-38
2023/01/29 11:33:08;;;;;;;17.70;11.70;;;;;;;1.09;69.90;99572.73;106842;1264;69912;-38
2023/01/29 11:35:36;;;;;;;18.60;12.00;;;;;;;1.11;70.49;99571.35;107212;1257;74054;-38
2023/01/29 11:38:25;;;;;;;17.10;10.80;;;;;;;1.21;70.75;99572.16;107056;1257;60793;-38
2023/01/29 11:41:10;;;;;;;17.20;10.60;;;;;;;1.29;69.87;99571.71;107258;1257;59465;-37
2023/01/29 11:43:38;;;;;;;18.80;11.90;;;;;;;1.29;69.88;99572.92;107039;1258;74183;-38
2023/01/29 11:46:11;;;;;;;19.40;11.80;;;;;;;1.30;69.97;99567.79;107252;1258;69862;-38
2023/01/29 11:48:40;;;;;;;17.90;11.30;;;;;;;1.33;69.58;99561.55;107064;1257;73991;-38
2023/01/29 11:51:11;;;;;;;18.70;11.30;;;;;;;1.32;69.04;99564.23;107306;1257;60817;-38
2023/01/29 11:53:43;;;;;;;20.20;11.30;;;;;;;1.28;68.92;99559.49;107308;1257;61579;-38
2023/01/29 11:56:39;;;;;;;17.70;11.50;;;;;;;1.25;69.18;99559.12;107249;1258;72897;-38
2023/01/29 11:59:27;;;;;;;17.60;10.40;;;;;;;1.25;68.93;99552.23;107183;1263;69789;-39
2023/01/29 12:01:55;;;;;;;13.70;10.30;;;;;;;1.25;68.49;99550.09;107182;1263;73880;-39
2023/01/29 12:04:24;;;;;;;13.70;10.00;;;;;;;1.26;68.66;99547.98;107226;1262;60458;-39
2023/01/29 12:06:52;;;;;;;15.20;10.00;;;;;;;1.28;68.29;99550.08;107262;1257;61321;-39
2023/01/29 12:09:22;;;;;;;14.90;9.70;;;;;;;1.30;67.98;99548.02;107095;1257;74224;-40
2023/01/29 12:11:51;;;;;;;;;;;;;;;1.29;68.09;99550.02;107288;1258;68530;-39
2023/01/29 12:14:28;;;;;;;11.50;7.60;;;;;;;1.21;67.88;99548.02;107236;1258;72323;-39
2023/01/29 12:17:13;;;;;;;16.80;10.50;;;;;;;1.17;68.19;99545.95;107249;1263;60433;-39
2023/01/29 12:19:58;;;;;;;17.20;11.20;;;;;;;1.20;68.45;99545.47;107185;1257;60544;-39
2023/01/29 12:22:34;;;;;;;19.30;11.20;;;;;;;1.25;68.47;99548.27;107216;1257;74528;-38
2023/01/29 12:25:18;;;;;;;21.30;12.70;;;;;;;1.27;68.53;99547.54;107055;1258;69996;-38
2023/01/29 12:28:07;;;;;;;18.50;11.30;;;;;;;1.30;68.31;99545.77;107186;1262;73892;-39
2023/01/29 12:30:48;;;;;;;17.40;11.20;;;;;;;1.36;68.45;99542.79;107209;1257;60498;-38
2023/01/29 12:33:59;;;;;;;17.50;11.50;;;;;;;1.36;68.46;99544.67;107204;1263;59565;-38
2023/01/29 12:36:42;;;;;;;16.50;10.40;;;;;;;1.34;68.20;99544.45;107218;1260;72922;-38
2023/01/29 12:39:11;;;;;;;20.20;12.70;;;;;;;1.27;67.71;99541.30;107190;1263;69776;-39
2023/01/29 12:41:45;;;;;;;18.50;11.80;;;;;;;1.19;67.87;99540.40;107030;1263;73890;-39
2023/01/29 12:44:36;;;;;;;19.60;13.30;;;;;;;1.16;67.87;99537.52;107213;1257;60697;-39
2023/01/29 12:47:05;;;;;;;20.40;12.90;;;;;;;1.09;67.67;99534.39;107200;1260;62160;-39
2023/01/29 12:49:34;;;;;;;19.10;12.40;;;;;;;0.99;67.67;99539.79;107207;1257;72121;-39
2023/01/29 12:52:05;;;;;;;19.00;11.40;;;;;;;0.97;67.41;99537.68;107155;1262;69616;-39
2023/01/29 12:54:37;;;;;;;17.80;11.80;;;;;;;0.97;67.22;99534.95;107063;1258;73868;-38
2023/01/29 12:57:41;;;;;;;17.20;11.50;;;;;;;0.94;67.18;99533.57;107098;1258;59645;-39
2023/01/29 13:00:16;;;;;;;16.40;11.10;;;;;;;0.89;67.25;99534.61;107060;1263;61385;-39
2023/01/29 13:03:06;;;;;;;20.50;12.20;;;;;;;0.82;67.62;99531.15;107163;1257;75052;-39
2023/01/29 13:05:38;;;;;;;18.70;11.80;;;;;;;0.77;67.72;99530.00;107203;1257;68630;-39
2023/01/29 13:08:13;;;;;;;17.50;11.70;;;;;;;0.72;67.92;99529.11;107271;1258;72804;-39
2023/01/29 13:10:43;;;;;;;19.70;12.20;;;;;;;0.70;67.69;99529.41;107245;1258;60591;-39
2023/01/29 13:13:13;;;;;;;17.80;10.70;;;;;;;0.63;67.50;99529.64;107191;1257;61565;-39
2023/01/29 13:15:43;;;;;;;20.30;12.50;;;;;;;0.64;67.64;99527.27;107227;1257;73599;-39
2023/01/29 13:18:32;;;;;;;17.30;11.50;;;;;;;0.67;67.92;99527.58;107110;1257;69950;-39
2023/01/29 13:21:00;;;;;;;20.00;12.40;;;;;;;0.68;68.05;99528.58;107228;1258;72820;-39
2023/01/29 13:24:08;;;;;;;17.60;11.30;;;;;;;0.72;68.19;99530.77;107096;1257;60829;-39
2023/01/29 13:26:36;;;;;;;16.50;11.40;;;;;;;0.78;67.71;99530.71;106809;1267;61485;-39
2023/01/29 13:29:05;;;;;;;16.50;10.50;;;;;;;0.76;67.59;99527.89;107125;1257;75041;-39
2023/01/29 13:31:35;;;;;;;16.60;10.90;;;;;;;0.71;66.94;99529.77;107301;1257;68733;-39
2023/01/29 13:34:14;;;;;;;17.20;10.30;;;;;;;0.66;67.22;99528.52;107235;1260;73335;-39
2023/01/29 13:36:47;;;;;;;23.20;10.70;;;;;;;0.60;67.62;99529.70;107207;1258;61295;-39
2023/01/29 13:39:32;;;;;;;15.40;9.90;;;;;;;0.63;67.25;99536.08;107217;1257;61212;-39
2023/01/29 13:42:02;;;;;;;15.90;10.10;;;;;;;0.68;67.32;99534.66;107233;1257;75054;-39
2023/01/29 13:44:36;;;;;;;17.60;9.90;;;;;;;0.68;67.08;99530.87;107226;1257;68856;-39
2023/01/29 13:47:06;;;;;;;15.00;10.30;;;;;;;0.65;67.01;99533.43;107172;1257;71587;-39
2023/01/29 13:49:39;;;;;;;16.30;10.00;;;;;;;0.63;67.09;99535.00;107074;1257;60539;-39
2023/01/29 13:52:42;;;;;;;15.00;10.30;;;;;;;0.62;67.21;99529.53;107279;1257;60338;-39
2023/01/29 13:55:13;;;;;;;15.00;9.70;;;;;;;0.60;66.99;99525.34;107159;1257;74723;-39
2023/01/29 18:17:58;;;;;;;12.30;8.40;;;;;;;-0.23;62.07;99516.46;105027;1283;612618;-39
2023/01/29 18:20:28;;;;;;;11.90;8.00;;;;;;;0.06;60.11;99513.61;106578;1266;177563;-39
2023/01/29 18:22:57;;;;;;;10.70;7.40;;;;;;;-0.13;59.75;99511.70;106715;1264;61533;-39
2023/01/29 18:25:25;;;;;;;10.50;7.50;;;;;;;-0.22;60.02;99509.12;106745;1268;73439;-39
2023/01/29 18:27:54;;;;;;;10.80;7.00;;;;;;;-0.29;59.49;99508.51;106761;1264;70104;-39
2023/01/29 18:30:22;;;;;;;9.80;6.50;;;;;;;-0.37;59.47;99509.66;106832;1264;72566;-39
2023/01/29 18:32:52;;;;;;;11.40;6.90;;;;;;;-0.44;59.85;99506.38;106894;1264;60769;-39
2023/01/29 18:35:21;;;;;;;12.20;6.70;;;;;;;-0.49;59.62;99512.34;106820;1268;61532;-39
2023/01/29 18:37:50;;;;;;;11.60;7.70;;;;;;;-0.54;59.94;99508.35;106789;1268;71733;-39
2023/01/29 18:40:18;;;;;;;11.60;7.30;;;;;;;-0.57;60.17;99508.27;106895;1264;67581;-39
2023/01/29 18:42:47;;;;;;;11.30;6.40;;;;;;;-0.60;60.00;99506.88;106043;1264;1002890;-39
2023/01/29 18:45:16;;;;;;;12.00;7.20;;;;;;;-0.63;59.55;99506.20;106797;1264;60486;-39
2023/01/29 18:47:45;;;;;;;11.70;7.30;;;;;;;-0.67;59.41;99506.84;106893;1266;60918;-39
2023/01/29 18:50:13;;;;;;;14.10;7.60;;;;;;;-0.68;59.55;99510.58;106863;1264;73118;-39
2023/01/29 18:52:45;;;;;;;11.20;7.70;;;;;;;-0.72;59.61;99509.21;106123;1264;1002848;-39
2023/01/29 18:55:14;;;;;;;12.20;8.10;;;;;;;-0.75;59.65;99509.63;106811;1264;72722;-39
2023/01/29 18:57:43;;;;;;;11.60;7.20;;;;;;;-0.75;59.62;99507.29;106864;1264;59924;-39
2023/01/29 19:00:32;;;;;;;8.60;5.40;;;;;;;-0.76;59.62;99504.85;106886;1266;60345;-40
2023/01/29 19:03:01;;;;;;;12.50;7.60;;;;;;;-0.78;59.80;99503.75;106098;1267;1003805;-40
2023/01/29 19:05:32;;;;;;;12.20;7.60;;;;;;;-0.77;59.81;99501.61;106826;1268;70087;-41
2023/01/29 19:08:00;;;;;;;15.30;8.90;;;;;;;-0.75;60.06;99500.48;106814;1266;73276;-39
2023/01/29 19:10:29;;;;;;;13.10;7.30;;;;;;;-0.75;59.65;99505.37;107231;1262;60463;-39
2023/01/29 19:12:59;;;;;;;12.10;7.90;;;;;;;-0.75;59.77;99508.72;106504;1257;1003020;-39
2023/01/29 19:15:32;;;;;;;13.50;8.00;;;;;;;-0.75;59.42;99506.86;107203;1257;74400;-39
2023/01/29 19:18:03;;;;;;;;;;;;;;;-0.76;59.48;99507.63;107173;1259;69758;-39
2023/01/29 19:20:31;;;;;;;11.50;7.20;;;;;;;-0.82;59.72;99507.36;107131;1260;73574;-39
2023/01/29 19:23:00;;;;;;;11.10;7.00;;;;;;;-0.86;59.71;99503.09;107066;1260;59662;-39
2023/01/29 19:25:29;;;;;;;10.30;6.50;;;;;;;-0.85;59.63;99503.14;106320;1260;1003818;-39
2023/01/29 19:27:57;;;;;;;11.80;7.30;;;;;;;-0.96;59.65;99485.13;106406;1259;1003054;-39
2023/01/29 19:30:26;;;;;;;12.00;7.50;;;;;;;-0.87;59.64;99491.48;107098;1260;69728;-39
2023/01/29 19:32:55;;;;;;;7.90;5.30;;;;;;;-0.88;59.57;99486.17;107056;1260;73871;-39
2023/01/29 19:35:23;;;;;;;11.00;7.10;;;;;;;-0.89;59.87;99487.35;107083;1259;60846;-39
2023/01/29 19:37:52;;;;;;;10.90;7.20;;;;;;;-0.89;59.96;99490.77;107204;1259;61100;-39
2023/01/29 19:40:20;;;;;;;10.80;7.10;;;;;;;-0.89;59.86;99486.13;107127;1260;73368;-39
2023/01/29 19:42:53;;;;;;;10.70;6.90;;;;;;;-0.90;59.63;99482.73;107177;1260;69924;-39
2023/01/29 19:45:24;;;;;;;12.30;7.90;;;;;;;-0.93;59.86;99476.34;107160;1260;71700;-39
2023/01/29 19:48:19;;;;;;;10.60;7.00;;;;;;;-0.93;60.14;99473.29;107164;1259;60592;-39
2023/01/29 19:51:07;;;;;;;13.30;7.90;;;;;;;-0.95;60.16;99473.10;107137;1259;61479;-39
2023/01/29 19:53:36;;;;;;;11.60;7.10;;;;;;;-0.95;60.46;99476.39;107170;1259;72670;-38
2023/01/29 19:56:07;;;;;;;15.40;8.30;;;;;;;-0.97;60.53;99476.63;106432;1258;1003568;-39
2023/01/29 19:58:35;;;;;;;15.70;8.30;;;;;;;-1.00;60.69;99480.28;107162;1260;71178;-39
2023/01/29 20:01:06;;;;;;;12.70;8.30;;;;;;;-1.03;60.87;99477.81;107126;1258;59820;-39
2023/01/29 20:03:36;;;;;;;13.80;8.20;;;;;;;-1.05;60.79;99473.03;106375;1260;1002941;-40
2023/01/29 20:06:05;;;;;;;11.90;7.40;;;;;;;-1.07;60.62;99472.73;107120;1258;73477;-40
2023/01/29 20:08:34;;;;;;;11.60;7.20;;;;;;;-1.10;60.04;99470.63;107156;1260;70408;-40
2023/01/29 20:11:04;;;;;;;11.70;7.70;;;;;;;-1.14;59.49;99462.41;107105;1259;73860;-40
2023/01/29 20:13:32;;;;;;;11.80;7.60;;;;;;;-1.16;59.63;99457.70;107137;1260;61416;-40
2023/01/29 20:16:02;;;;;;;10.30;7.00;;;;;;;-1.19;58.84;99460.76;107128;1257;60419;-40
2023/01/29 20:18:31;;;;;;;10.00;6.70;;;;;;;-1.22;58.63;99465.52;107266;1257;75344;-40
2023/01/29 20:21:04;;;;;;;11.70;7.50;;;;;;;-1.22;58.97;99466.04;107242;1257;69998;-40
2023/01/29 20:23:33;;;;;;;10.10;7.20;;;;;;;-1.21;59.15;99474.18;107297;1257;73819;-40
2023/01/29 20:26:06;;;;;;;10.90;6.40;;;;;;;-1.20;59.05;99475.83;107256;1257;61608;-40
2023/01/29 20:28:35;;;;;;;9.80;6.50;;;;;;;-1.19;59.04;99476.67;107241;1257;61320;-40
2023/01/29 20:31:04;;;;;;;9.40;6.30;;;;;;;-1.17;59.06;99471.23;107236;1262;74250;-40
2023/01/29 20:33:34;;;;;;;11.40;6.80;;;;;;;-1.18;59.02;99474.01;106495;1257;1003679;-40
2023/01/29 20:36:08;;;;;;;12.40;6.80;;;;;;;-1.18;59.13;99480.39;107241;1261;71347;-40
2023/01/29 20:38:37;;;;;;;10.90;6.40;;;;;;;-1.17;59.21;99479.90;107249;1257;59717;-40
2023/01/29 20:41:07;;;;;;;10.00;6.40;;;;;;;-1.18;58.86;99474.80;107226;1257;61701;-40
2023/01/29 20:43:36;;;;;;;9.50;6.60;;;;;;;-1.17;58.98;99479.05;107249;1262;74173;-40
2023/01/29 20:46:05;;;;;;;10.50;5.80;;;;;;;-1.18;59.08;99477.25;107251;1262;67552;-40
2023/01/29 20:48:37;;;;;;;11.00;6.70;;;;;;;-1.17;59.08;99481.55;107204;1257;73315;-40
2023/01/29 20:51:08;;;;;;;10.70;6.40;;;;;;;-1.17;59.08;99483.09;107243;1257;61559;-40
2023/01/29 20:53:37;;;;;;;9.60;6.40;;;;;;;-1.18;59.00;99480.17;107187;1257;61560;-40
2023/01/29 20:56:09;;;;;;;10.30;6.60;;;;;;;-1.16;59.17;99478.89;107227;1257;74249;-40
2023/01/29 20:58:42;;;;;;;10.90;6.80;;;;;;;-1.15;59.39;99478.66;107188;1257;68863;-40
2023/01/29 21:01:12;;;;;;;12.20;6.60;;;;;;;-1.14;59.34;99481.48;107224;1257;73872;-40
2023/01/29 21:03:40;;;;;;;;;;;;;;;-1.14;58.87;99475.19;107283;1257;59560;-40
2023/01/29 21:06:09;;;;;;;8.60;6.00;;;;;;;-1.20;58.97;99470.88;107199;1257;61291;-40
2023/01/29 21:08:38;;;;;;;;;;;;;;;-1.24;59.22;99465.64;107110;1257;73965;-40
2023/01/29 21:11:07;;;;;;;10.50;6.10;;;;;;;-1.26;59.23;99467.58;107174;1257;70028;-40
2023/01/29 21:13:36;;;;;;;9.70;6.70;;;;;;;-1.28;59.36;99472.37;107131;1261;74051;-40
2023/01/29 21:16:05;;;;;;;9.80;6.70;;;;;;;-1.22;59.33;99464.41;107088;1257;61596;-40
2023/01/29 21:18:34;;;;;;;10.10;6.30;;;;;;;-1.19;59.38;99457.30;107233;1257;60291;-38
2023/01/29 21:21:03;;;;;;;6.70;4.70;;;;;;;-1.18;59.42;99450.75;107232;1261;73435;-39
2023/01/29 21:23:32;;;;;;;7.00;5.10;;;;;;;-1.17;59.26;99445.27;107257;1257;69613;-38
2023/01/29 21:26:02;;;;;;;9.00;5.70;;;;;;;-1.16;58.95;99452.14;107223;1261;73902;-39
2023/01/29 21:28:31;;;;;;;9.40;6.00;;;;;;;-1.18;58.61;99449.38;107227;1257;61598;-39